createdAt,value
2023-04-12T00:00:12.152Z,9.17
2023-04-12T00:02:42.529Z,9.05
2023-04-12T00:05:11.810Z,9.00
2023-04-12T00:07:40.803Z,9.00
2023-04-12T00:10:10.669Z,8.95
2023-04-12T00:12:41.033Z,8.88
2023-04-12T00:15:12.064Z,8.93
2023-04-12T00:17:40.506Z,8.85
2023-04-12T00:20:12.948Z,8.79
2023-04-12T00:22:42.015Z,8.68
2023-04-12T00:25:11.222Z,8.66
2023-04-12T00:27:40.834Z,8.61
2023-04-12T00:30:12.653Z,8.56
2023-04-12T00:32:42.404Z,8.50
2023-04-12T00:35:11.253Z,8.54
2023-04-12T00:37:41.863Z,8.51
2023-04-12T00:40:11.280Z,8.54
2023-04-12T00:42:39.732Z,8.53
2023-04-12T00:45:09.400Z,8.58
2023-04-12T00:47:40.390Z,8.53
2023-04-12T00:50:10.113Z,8.54
2023-04-12T00:52:39.241Z,8.61
2023-04-12T00:55:09.519Z,8.57
2023-04-12T00:57:39.945Z,8.56
2023-04-12T01:00:14.972Z,8.53
2023-04-12T01:02:48.552Z,8.42
2023-04-12T01:05:22.048Z,8.31
2023-04-12T01:08:06.286Z,8.17
2023-04-12T01:10:42.995Z,8.10
2023-04-12T01:13:22.706Z,8.09
2023-04-12T01:15:59.025Z,8.10
2023-04-12T01:18:34.946Z,8.04
2023-04-12T01:21:08.972Z,7.96
2023-04-12T01:24:15.049Z,7.88
2023-04-12T01:26:45.580Z,7.77
2023-04-12T01:29:18.104Z,7.83
2023-04-12T01:31:53.389Z,7.84
2023-04-12T01:34:26.016Z,7.81
2023-04-12T01:36:56.632Z,7.72
2023-04-12T01:39:25.119Z,7.73
2023-04-12T01:41:53.573Z,7.79
2023-04-12T01:44:23.329Z,7.85
2023-04-12T01:46:53.961Z,7.82
2023-04-12T01:49:25.502Z,7.80
2023-04-12T01:52:00.749Z,6.92
2023-04-12T01:54:31.598Z,7.74
2023-04-12T01:57:03.757Z,7.73
2023-04-12T01:59:40.681Z,7.69
2023-04-12T02:02:10.474Z,7.58
2023-04-12T02:04:39.923Z,7.57
2023-04-12T02:07:09.607Z,7.52
2023-04-12T02:09:39.081Z,7.48
2023-04-12T02:12:08.985Z,7.58
2023-04-12T02:14:39.290Z,7.62
2023-04-12T02:17:08.766Z,7.66
2023-04-12T02:19:38.432Z,7.73
2023-04-12T02:22:08.525Z,7.82
2023-04-12T02:24:37.052Z,7.78
2023-04-12T02:27:06.240Z,7.75
2023-04-12T02:29:36.125Z,7.71
2023-04-12T02:32:06.272Z,7.70
2023-04-12T02:34:36.746Z,7.59
2023-04-12T02:37:22.170Z,7.45
2023-04-12T02:39:50.617Z,7.48
2023-04-12T02:42:19.268Z,7.49
2023-04-12T02:44:50.235Z,7.54
2023-04-12T02:47:20.114Z,7.53
2023-04-12T02:49:50.865Z,7.46
2023-04-12T02:52:20.546Z,7.35
2023-04-12T02:55:02.524Z,7.31
2023-04-12T02:57:31.478Z,7.33
2023-04-12T03:00:00.011Z,7.22
2023-04-12T03:02:56.312Z,7.08
2023-04-12T03:05:28.632Z,7.07
2023-04-12T03:07:57.613Z,7.13
2023-04-12T03:10:38.023Z,7.10
2023-04-12T03:13:07.259Z,7.07
2023-04-12T03:15:43.819Z,7.05
2023-04-12T03:18:14.257Z,7.03
2023-04-12T03:20:49.032Z,6.99
2023-04-12T03:23:19.066Z,6.97
2023-04-12T03:25:52.296Z,6.99
2023-04-12T03:28:35.027Z,7.04
2023-04-12T03:31:06.981Z,7.09
2023-04-12T03:33:43.558Z,7.14
2023-04-12T03:36:31.427Z,7.12
2023-04-12T03:39:08.003Z,7.04
2023-04-12T03:41:38.765Z,7.00
2023-04-12T03:44:07.808Z,6.94
2023-04-12T03:46:37.641Z,6.86
2023-04-12T03:49:12.066Z,6.90
2023-04-12T03:51:43.093Z,6.94
2023-04-12T03:54:12.311Z,6.91
2023-04-12T03:57:06.921Z,6.81
2023-04-12T03:59:47.671Z,6.75
2023-04-12T04:02:18.439Z,6.71
2023-04-12T04:04:52.287Z,6.60
2023-04-12T04:07:28.130Z,6.58
2023-04-12T04:09:58.077Z,7.28
2023-04-12T04:12:30.073Z,6.92
2023-04-12T04:14:59.435Z,6.86
2023-04-12T04:17:32.988Z,6.75
2023-04-12T04:20:06.051Z,6.66
2023-04-12T04:22:37.152Z,6.62
2023-04-12T04:25:07.113Z,6.61
2023-04-12T04:27:39.135Z,6.60
2023-04-12T04:30:10.666Z,6.58
2023-04-12T04:32:44.472Z,6.51
2023-04-12T04:35:15.795Z,6.53
2023-04-12T04:38:01.950Z,6.49
2023-04-12T04:40:30.617Z,6.50
2023-04-12T04:42:59.515Z,6.45
2023-04-12T04:45:32.661Z,6.44
2023-04-12T04:48:02.973Z,6.50
2023-04-12T04:50:32.860Z,6.51
2023-04-12T04:53:01.341Z,6.51
2023-04-12T04:55:32.695Z,6.46
2023-04-12T04:58:01.113Z,6.42
2023-04-12T05:00:30.544Z,6.42
2023-04-12T05:03:00.657Z,6.42
2023-04-12T05:05:30.530Z,6.39
2023-04-12T05:08:09.752Z,6.42
2023-04-12T05:10:38.467Z,5.85
2023-04-12T05:13:06.760Z,6.47
2023-04-12T05:15:35.251Z,6.46
2023-04-12T05:18:03.975Z,6.46
2023-04-12T05:20:32.838Z,6.45
2023-04-12T05:23:01.485Z,6.51
2023-04-12T05:25:31.453Z,6.64
2023-04-12T05:28:07.331Z,6.84
2023-04-12T05:30:36.018Z,6.92
2023-04-12T05:33:05.595Z,6.85
2023-04-12T05:35:35.554Z,6.83
2023-04-12T05:38:04.413Z,6.79
2023-04-12T05:40:36.548Z,6.77
2023-04-12T05:43:06.632Z,6.73
2023-04-12T05:45:35.009Z,6.75
2023-04-12T05:48:03.688Z,6.77
2023-04-12T05:50:32.147Z,6.78
2023-04-12T05:53:02.120Z,6.82
2023-04-12T05:55:37.934Z,6.86
2023-04-12T05:58:07.750Z,6.86
2023-04-12T06:00:37.288Z,6.88
2023-04-12T06:03:05.920Z,7.02
2023-04-12T06:05:35.786Z,7.09
2023-04-12T06:08:05.423Z,6.45
2023-04-12T06:10:35.354Z,7.29
2023-04-12T06:13:04.551Z,7.51
2023-04-12T06:15:33.720Z,7.73
2023-04-12T06:18:02.207Z,7.81
2023-04-12T06:20:30.666Z,7.88
2023-04-12T06:22:59.097Z,8.03
2023-04-12T06:25:27.548Z,8.22
2023-04-12T06:27:58.432Z,8.39
2023-04-12T06:30:27.986Z,8.71
2023-04-12T06:32:56.793Z,9.18
2023-04-12T06:35:25.307Z,9.65
2023-04-12T06:37:53.814Z,10.10
2023-04-12T06:40:22.336Z,10.69
2023-04-12T06:42:50.818Z,11.25
2023-04-12T06:45:25.102Z,11.70
2023-04-12T06:47:56.084Z,12.25
2023-04-12T06:50:24.637Z,12.47
2023-04-12T06:52:53.004Z,12.48
2023-04-12T06:55:21.521Z,12.37
2023-04-12T06:57:52.268Z,12.54
2023-04-12T07:00:21.146Z,12.75
2023-04-12T07:02:51.162Z,12.89
2023-04-12T07:05:19.828Z,12.89
2023-04-12T07:07:48.236Z,12.79
2023-04-12T07:10:16.729Z,12.71
2023-04-12T07:12:45.174Z,12.54
2023-04-12T07:15:13.595Z,12.48
2023-04-12T07:17:42.352Z,12.47
2023-04-12T07:20:13.491Z,12.42
2023-04-12T07:22:43.084Z,12.40
2023-04-12T07:25:11.419Z,12.54
2023-04-12T07:27:39.981Z,12.70
2023-04-12T07:30:09.924Z,12.77
2023-04-12T07:32:38.434Z,12.84
2023-04-12T07:35:07.797Z,12.98
2023-04-12T07:37:37.585Z,13.04
2023-04-12T07:40:07.445Z,13.12
2023-04-12T07:42:35.929Z,13.22
2023-04-12T07:45:04.416Z,13.33
2023-04-12T07:47:33.017Z,13.43
2023-04-12T07:50:02.150Z,13.55
2023-04-12T07:52:30.605Z,13.62
2023-04-12T07:55:00.705Z,13.69
2023-04-12T07:57:29.067Z,13.77
2023-04-12T07:59:57.642Z,13.85
2023-04-12T08:02:26.374Z,13.92
2023-04-12T08:04:55.731Z,13.99
2023-04-12T08:07:24.402Z,14.04
2023-04-12T08:09:53.913Z,14.13
2023-04-12T08:12:23.701Z,14.18
2023-04-12T08:14:52.205Z,14.23
2023-04-12T08:17:20.684Z,14.30
2023-04-12T08:19:49.066Z,14.29
2023-04-12T08:22:17.357Z,14.30
2023-04-12T08:24:46.609Z,14.28
2023-04-12T08:27:16.573Z,14.32
2023-04-12T08:29:46.841Z,14.36
2023-04-12T08:32:16.253Z,14.34
2023-04-12T08:34:46.151Z,14.42
2023-04-12T08:37:14.640Z,14.43
2023-04-12T08:39:43.085Z,14.48
2023-04-12T08:42:12.444Z,14.49
2023-04-12T08:44:41.209Z,14.31
2023-04-12T08:47:12.143Z,14.48
2023-04-12T08:49:40.611Z,14.48
2023-04-12T08:52:11.149Z,14.59
2023-04-12T08:54:39.761Z,14.64
2023-04-12T08:57:10.265Z,14.72
2023-04-12T08:59:39.975Z,14.78
2023-04-12T09:02:08.579Z,14.85
2023-04-12T09:04:49.084Z,14.94
2023-04-12T09:07:18.178Z,14.98
2023-04-12T09:09:48.012Z,14.98
2023-04-12T09:12:16.637Z,14.94
2023-04-12T09:14:45.364Z,14.85
2023-04-12T09:17:24.574Z,15.07
2023-04-12T09:19:56.145Z,15.11
2023-04-12T09:22:35.419Z,15.19
2023-04-12T09:25:05.099Z,15.22
2023-04-12T09:27:48.206Z,15.30
2023-04-12T09:30:18.564Z,15.33
2023-04-12T09:32:49.417Z,15.39
2023-04-12T09:35:19.745Z,15.45
2023-04-12T09:37:48.072Z,15.45
2023-04-12T09:40:17.019Z,15.51
2023-04-12T09:42:53.683Z,15.62
2023-04-12T09:45:25.462Z,15.64
2023-04-12T09:47:55.221Z,15.71
2023-04-12T09:50:28.569Z,15.74
2023-04-12T09:52:57.961Z,15.74
2023-04-12T09:55:28.694Z,15.77
2023-04-12T09:57:57.755Z,15.76
2023-04-12T10:00:27.824Z,15.77
2023-04-12T10:02:57.824Z,15.65
2023-04-12T10:05:29.298Z,15.83
2023-04-12T10:08:01.553Z,15.81
2023-04-12T10:10:32.515Z,15.81
2023-04-12T10:13:02.238Z,15.79
2023-04-12T10:15:32.233Z,15.80
2023-04-12T10:18:04.798Z,15.80
2023-04-12T10:20:34.939Z,15.84
2023-04-12T10:23:08.023Z,15.85
2023-04-12T10:25:37.015Z,15.88
2023-04-12T10:28:17.433Z,15.95
2023-04-12T10:30:48.237Z,15.93
2023-04-12T10:33:18.237Z,16.05
2023-04-12T10:36:00.861Z,16.18
2023-04-12T10:38:35.351Z,16.31
2023-04-12T10:41:16.317Z,16.49
2023-04-12T10:43:46.006Z,16.56
2023-04-12T10:46:49.206Z,16.65
2023-04-12T10:49:18.671Z,16.53
2023-04-12T10:52:16.445Z,16.88
2023-04-12T10:54:45.612Z,16.76
2023-04-12T10:57:43.537Z,17.14
2023-04-12T11:00:13.039Z,17.20
2023-04-12T11:03:12.946Z,17.28
2023-04-12T11:06:12.605Z,17.43
2023-04-12T11:09:08.140Z,17.49
2023-04-12T11:11:42.959Z,17.58
2023-04-12T11:14:11.559Z,17.71
2023-04-12T11:17:13.480Z,17.84
2023-04-12T11:19:43.137Z,17.97
2023-04-12T11:22:13.430Z,18.09
2023-04-12T11:24:45.627Z,18.19
2023-04-12T11:27:14.300Z,18.27
2023-04-12T11:29:43.395Z,18.32
2023-04-12T11:32:14.328Z,18.41
2023-04-12T11:34:46.228Z,18.28
2023-04-12T11:37:15.120Z,18.52
2023-04-12T11:39:46.786Z,18.36
2023-04-12T11:42:16.915Z,18.57
2023-04-12T11:47:19.092Z,18.66
2023-04-12T11:49:48.946Z,18.67
2023-04-12T11:52:18.763Z,18.75
2023-04-12T11:54:50.613Z,18.79
2023-04-12T11:57:20.423Z,18.84
2023-04-12T11:59:50.426Z,18.88
2023-04-12T12:02:24.145Z,18.91
2023-04-12T12:04:53.606Z,18.92
2023-04-12T12:07:22.927Z,18.92
2023-04-12T12:09:53.401Z,18.95
2023-04-12T12:12:25.242Z,18.98
2023-04-12T12:14:53.712Z,19.05
2023-04-12T12:17:22.189Z,19.10
2023-04-12T12:19:50.536Z,19.14
2023-04-12T12:22:21.797Z,19.20
2023-04-12T12:24:56.101Z,19.24
2023-04-12T12:27:26.088Z,19.28
2023-04-12T12:29:56.578Z,19.36
2023-04-12T12:32:25.896Z,19.42
2023-04-12T12:34:56.021Z,19.54
2023-04-12T12:37:28.794Z,19.64
2023-04-12T12:40:11.651Z,19.74
2023-04-12T12:42:47.535Z,19.81
2023-04-12T12:45:16.356Z,19.85
2023-04-12T12:47:49.514Z,19.92
2023-04-12T12:50:22.633Z,19.99
2023-04-12T12:52:52.959Z,20.07
2023-04-12T12:55:23.239Z,20.12
2023-04-12T12:58:06.870Z,20.16
2023-04-12T13:00:37.440Z,20.17
2023-04-12T13:03:06.223Z,20.21
2023-04-12T13:05:34.868Z,20.19
2023-04-12T13:08:03.253Z,20.21
2023-04-12T13:10:33.049Z,20.31
2023-04-12T13:13:01.780Z,20.38
2023-04-12T13:15:30.304Z,20.39
2023-04-12T13:17:58.713Z,20.37
2023-04-12T13:20:27.493Z,20.39
2023-04-12T13:22:56.156Z,20.42
2023-04-12T13:25:24.619Z,20.39
2023-04-12T13:27:54.464Z,20.37
2023-04-12T13:30:23.007Z,20.34
2023-04-12T13:32:51.583Z,20.28
2023-04-12T13:35:20.083Z,20.25
2023-04-12T13:37:48.532Z,20.27
2023-04-12T13:40:16.925Z,20.28
2023-04-12T13:42:45.549Z,20.24
2023-04-12T13:45:15.791Z,20.24
2023-04-12T13:47:44.253Z,20.19
2023-04-12T13:50:12.805Z,20.19
2023-04-12T13:52:41.417Z,20.20
2023-04-12T13:55:10.508Z,20.22
2023-04-12T13:57:38.882Z,20.21
2023-04-12T14:00:10.060Z,20.23
2023-04-12T14:02:40.176Z,20.18
2023-04-12T14:05:09.573Z,20.18
2023-04-12T14:07:38.038Z,20.15
2023-04-12T14:10:07.423Z,20.12
2023-04-12T14:12:35.968Z,20.10
2023-04-12T14:15:04.841Z,20.10
2023-04-12T14:17:33.475Z,20.08
2023-04-12T14:20:06.615Z,19.99
2023-04-12T14:22:36.042Z,19.92
2023-04-12T14:25:04.548Z,19.91
2023-04-12T14:27:33.058Z,19.96
2023-04-12T14:30:01.651Z,19.98
2023-04-12T14:32:30.233Z,19.87
2023-04-12T14:34:58.632Z,19.89
2023-04-12T14:37:28.460Z,19.91
2023-04-12T14:39:56.855Z,19.88
2023-04-12T14:42:25.298Z,19.91
2023-04-12T14:44:53.696Z,19.97
2023-04-12T14:47:22.190Z,20.03
2023-04-12T14:49:50.797Z,20.04
2023-04-12T14:52:19.454Z,20.03
2023-04-12T14:54:49.251Z,20.04
2023-04-12T14:57:17.675Z,20.03
2023-04-12T14:59:46.113Z,19.98
2023-04-12T15:02:14.613Z,19.97
2023-04-12T15:04:43.306Z,19.94
2023-04-12T15:07:11.838Z,19.79
2023-04-12T15:09:40.269Z,19.75
2023-04-12T15:12:10.031Z,19.70
2023-04-12T15:14:38.373Z,19.66
2023-04-12T15:17:06.820Z,19.55
2023-04-12T15:19:35.246Z,19.48
2023-04-12T15:22:03.620Z,19.43
2023-04-12T15:24:32.210Z,19.37
2023-04-12T15:27:02.678Z,19.31
2023-04-12T15:29:33.544Z,19.16
2023-04-12T15:32:02.049Z,19.11
2023-04-12T15:34:34.065Z,18.97
2023-04-12T15:37:02.856Z,18.80
2023-04-12T15:39:31.380Z,18.75
2023-04-12T15:42:00.477Z,18.72
2023-04-12T15:44:31.942Z,18.66
2023-04-12T15:47:11.011Z,18.52
2023-04-12T15:49:40.634Z,18.54
2023-04-12T15:52:09.245Z,18.55
2023-04-12T15:54:43.548Z,18.62
2023-04-12T15:57:12.373Z,18.45
2023-04-12T15:59:42.029Z,18.60
2023-04-12T16:02:12.232Z,18.62
2023-04-12T16:04:40.810Z,18.55
2023-04-12T16:07:09.481Z,18.49
2023-04-12T16:09:39.881Z,18.34
2023-04-12T16:12:08.591Z,18.23
2023-04-12T16:14:37.230Z,18.18
2023-04-12T16:17:06.277Z,18.06
2023-04-12T16:19:36.030Z,17.98
2023-04-12T16:22:04.929Z,17.90
2023-04-12T16:24:33.389Z,17.67
2023-04-12T16:27:02.469Z,17.51
2023-04-12T16:29:31.751Z,17.43
2023-04-12T16:32:00.217Z,17.29
2023-04-12T16:34:28.806Z,17.17
2023-04-12T16:36:58.575Z,17.07
2023-04-12T16:39:29.325Z,16.99
2023-04-12T16:41:57.735Z,16.81
2023-04-12T16:44:26.080Z,16.74
2023-04-12T16:46:56.368Z,16.51
2023-04-12T16:49:24.790Z,16.40
2023-04-12T16:51:53.168Z,16.37
2023-04-12T16:54:22.969Z,16.37
2023-04-12T16:56:51.484Z,16.27
2023-04-12T16:59:19.995Z,16.22
2023-04-12T17:01:48.476Z,16.18
2023-04-12T17:04:17.699Z,16.08
2023-04-12T17:06:46.229Z,16.00
2023-04-12T17:09:14.559Z,15.97
2023-04-12T17:11:44.368Z,15.92
2023-04-12T17:14:13.857Z,15.94
2023-04-12T17:16:42.608Z,15.91
2023-04-12T17:19:10.956Z,15.81
2023-04-12T17:21:42.875Z,15.81
2023-04-12T17:24:11.389Z,16.11
2023-04-12T17:26:40.508Z,15.97
2023-04-12T17:29:10.458Z,15.87
2023-04-12T17:31:39.544Z,15.78
2023-04-12T17:34:08.284Z,15.74
2023-04-12T17:36:36.625Z,15.64
2023-04-12T17:39:05.337Z,15.61
2023-04-12T17:41:33.769Z,15.55
2023-04-12T17:44:02.170Z,15.54
2023-04-12T17:46:32.075Z,15.48
2023-04-12T17:49:04.148Z,15.37
2023-04-12T17:51:33.481Z,15.27
2023-04-12T17:54:03.690Z,15.23
2023-04-12T17:56:32.024Z,15.21
2023-04-12T17:59:02.203Z,15.16
2023-04-12T18:01:32.139Z,15.11
2023-04-12T18:04:03.177Z,15.03
2023-04-12T18:06:32.518Z,14.97
2023-04-12T18:09:01.582Z,14.87
2023-04-12T18:11:30.110Z,14.80
2023-04-12T18:13:58.750Z,14.81
2023-04-12T18:16:29.382Z,14.78
2023-04-12T18:18:59.574Z,14.68
2023-04-12T18:21:29.038Z,14.74
2023-04-12T18:23:57.817Z,14.65
2023-04-12T18:26:26.558Z,14.57
2023-04-12T18:28:55.057Z,14.52
2023-04-12T18:31:23.682Z,14.51
2023-04-12T18:33:52.335Z,14.47
2023-04-12T18:36:22.084Z,14.47
2023-04-12T18:38:50.494Z,14.44
2023-04-12T18:41:19.036Z,14.46
2023-04-12T18:43:47.489Z,14.44
2023-04-12T18:46:17.954Z,14.41
2023-04-12T18:48:48.191Z,14.38
2023-04-12T18:51:16.773Z,14.36
2023-04-12T18:53:46.850Z,14.28
2023-04-12T18:56:18.308Z,14.27
2023-04-12T18:58:54.996Z,14.24
2023-04-12T19:01:25.285Z,14.19
2023-04-12T19:03:54.013Z,14.19
2023-04-12T19:06:22.575Z,14.11
2023-04-12T19:08:52.342Z,14.01
2023-04-12T19:11:20.798Z,13.97
2023-04-12T19:13:50.205Z,13.92
2023-04-12T19:16:19.426Z,13.86
2023-04-12T19:18:47.837Z,13.79
2023-04-12T19:21:16.332Z,13.81
2023-04-12T19:23:45.104Z,13.75
2023-04-12T19:26:14.919Z,13.68
2023-04-12T19:28:43.790Z,13.55
2023-04-12T19:31:14.150Z,13.51
2023-04-12T19:33:42.741Z,13.40
2023-04-12T19:36:11.962Z,13.40
2023-04-12T19:38:41.527Z,13.36
2023-04-12T19:41:09.966Z,13.35
2023-04-12T19:43:39.750Z,13.30
2023-04-12T19:46:08.739Z,13.24
2023-04-12T19:48:37.866Z,13.22
2023-04-12T19:51:07.471Z,13.22
2023-04-12T19:53:36.008Z,13.13
2023-04-12T19:56:05.975Z,13.12
2023-04-12T19:58:34.785Z,13.07
2023-04-12T20:01:05.712Z,12.93
2023-04-12T20:03:34.245Z,12.87
2023-04-12T20:06:04.588Z,12.84
2023-04-12T20:08:34.208Z,12.84
2023-04-12T20:11:02.871Z,12.78
2023-04-12T20:13:31.918Z,12.69
2023-04-12T20:16:01.386Z,12.53
2023-04-12T20:18:31.214Z,12.39
2023-04-12T20:20:59.521Z,12.30
2023-04-12T20:23:28.067Z,12.31
2023-04-12T20:25:56.338Z,12.24
2023-04-12T20:28:25.829Z,12.22
2023-04-12T20:30:54.336Z,12.14
2023-04-12T20:33:22.756Z,12.08
2023-04-12T20:35:52.653Z,12.01
2023-04-12T20:38:21.064Z,11.98
2023-04-12T20:40:49.927Z,11.93
2023-04-12T20:43:18.338Z,11.89
2023-04-12T20:45:46.868Z,11.85
2023-04-12T20:48:15.456Z,11.75
2023-04-12T20:50:43.872Z,11.75
2023-04-12T20:53:15.923Z,11.67
2023-04-12T20:55:44.403Z,11.56
2023-04-12T20:58:13.389Z,11.44
2023-04-12T21:00:41.969Z,11.35
2023-04-12T21:03:12.495Z,11.24
2023-04-12T21:05:41.343Z,11.18
2023-04-12T21:08:10.246Z,11.15
2023-04-12T21:10:40.966Z,11.10
2023-04-12T21:13:09.341Z,11.16
2023-04-12T21:15:38.546Z,11.08
2023-04-12T21:18:07.219Z,11.01
2023-04-12T21:20:35.684Z,11.01
2023-04-12T21:23:07.130Z,10.89
2023-04-12T21:25:36.058Z,10.84
2023-04-12T21:28:06.893Z,10.77
2023-04-12T21:30:36.034Z,10.61
2023-04-12T21:33:04.542Z,10.47
2023-04-12T21:35:34.396Z,10.41
2023-04-12T21:38:02.799Z,10.37
2023-04-12T21:40:31.260Z,10.38
2023-04-12T21:42:59.690Z,10.32
2023-04-12T21:45:29.570Z,10.25
2023-04-12T21:47:58.004Z,10.24
2023-04-12T21:50:26.429Z,10.22
2023-04-12T21:52:55.725Z,10.15
2023-04-12T21:55:24.369Z,10.07
2023-04-12T21:57:53.101Z,10.06
2023-04-12T22:00:22.237Z,9.93
2023-04-12T22:02:52.118Z,9.88
2023-04-12T22:05:20.664Z,9.78
2023-04-12T22:07:49.025Z,9.70
2023-04-12T22:10:18.877Z,9.66
2023-04-12T22:12:50.291Z,9.64
2023-04-12T22:15:19.713Z,9.54
2023-04-12T22:17:48.514Z,9.49
2023-04-12T22:20:18.474Z,9.45
2023-04-12T22:22:47.116Z,9.35
2023-04-12T22:25:15.961Z,9.31
2023-04-12T22:27:46.488Z,9.36
2023-04-12T22:30:15.962Z,9.32
2023-04-12T22:32:44.467Z,9.22
2023-04-12T22:35:13.061Z,9.07
2023-04-12T22:37:43.389Z,8.95
2023-04-12T22:40:14.113Z,8.86
2023-04-12T22:42:47.475Z,8.68
2023-04-12T22:45:16.405Z,8.71
2023-04-12T22:47:45.166Z,8.59
2023-04-12T22:50:14.216Z,8.56
2023-04-12T22:52:44.056Z,8.64
2023-04-12T22:55:14.323Z,8.63
2023-04-12T22:57:42.656Z,8.65
2023-04-12T23:00:16.429Z,8.66
2023-04-12T23:02:46.539Z,8.69
2023-04-12T23:05:16.514Z,8.61
2023-04-12T23:07:46.444Z,8.57
2023-04-12T23:10:14.948Z,8.47
2023-04-12T23:12:43.566Z,8.39
2023-04-12T23:15:12.810Z,8.36
2023-04-12T23:17:41.322Z,8.28
2023-04-12T23:20:13.380Z,8.14
2023-04-12T23:22:57.397Z,8.07
2023-04-12T23:25:39.617Z,7.98
2023-04-12T23:28:12.915Z,7.89
2023-04-12T23:30:45.334Z,7.86
2023-04-12T23:33:14.062Z,7.75
2023-04-12T23:35:43.844Z,7.63
2023-04-12T23:38:15.746Z,7.53
2023-04-12T23:40:46.942Z,7.49
2023-04-12T23:43:15.388Z,7.40
2023-04-12T23:45:43.738Z,7.39
2023-04-12T23:48:12.640Z,7.34
2023-04-12T23:50:41.095Z,7.29
2023-04-12T23:53:09.474Z,7.29
2023-04-12T23:55:37.769Z,7.27
2023-04-12T23:58:07.570Z,7.17
